createdAt,value
2019-05-21T00:01:13.031Z,23.27
2019-05-21T00:03:42.778Z,23.52
2019-05-21T00:06:12.497Z,22.58
2019-05-21T00:08:42.233Z,24.70
2019-05-21T00:11:12.529Z,25.80
2019-05-21T00:13:42.253Z,25.15
2019-05-21T00:16:12.362Z,23.87
2019-05-21T00:18:42.090Z,24.80
2019-05-21T00:21:12.286Z,24.98
2019-05-21T00:23:42.011Z,23.27
2019-05-21T00:26:12.708Z,23.07
2019-05-21T00:28:41.359Z,23.10
2019-05-21T00:31:47.761Z,22.55
2019-05-21T00:34:59.028Z,22.04
2019-05-21T00:38:05.314Z,24.12
2019-05-21T00:41:11.726Z,21.80
2019-05-21T00:43:47.162Z,19.05
2019-05-21T00:46:16.914Z,24.90
2019-05-21T00:48:46.641Z,23.00
2019-05-21T00:51:16.457Z,25.55
2019-05-21T00:53:46.183Z,26.00
2019-05-21T00:56:15.927Z,26.30
2019-05-21T00:58:45.659Z,25.25
2019-05-21T01:01:15.488Z,26.57
2019-05-21T01:03:45.233Z,27.05
2019-05-21T02:35:54.857Z,26.95
2019-05-21T02:38:26.208Z,29.55
2019-05-21T02:40:55.943Z,27.48
2019-05-21T02:43:25.835Z,30.10
2019-05-21T02:45:55.571Z,24.67
2019-05-21T02:48:25.294Z,24.50
2019-05-21T02:50:55.038Z,32.00
2019-05-21T02:53:24.774Z,25.60
2019-05-21T02:55:54.501Z,25.55
2019-05-21T02:58:25.398Z,34.92
2019-05-21T03:01:03.874Z,28.87
2019-05-21T03:03:34.559Z,29.75
2019-05-21T03:06:13.642Z,27.27
2019-05-21T03:08:35.875Z,29.15
2019-05-21T03:11:05.599Z,25.02
2019-05-21T03:13:35.356Z,30.17
2019-05-21T03:16:05.077Z,28.47
2019-05-21T03:18:34.894Z,27.07
2019-05-21T03:21:04.630Z,24.57
2019-05-21T03:23:34.426Z,25.68
2019-05-21T03:26:04.163Z,31.05
2019-05-21T03:28:33.957Z,23.57
2019-05-21T03:31:03.682Z,22.82
2019-05-21T03:33:33.418Z,27.22
2019-05-21T03:36:06.855Z,21.30
2019-05-21T03:38:36.865Z,28.80
2019-05-21T03:41:06.581Z,24.25
2019-05-21T03:43:37.182Z,26.02
2019-05-21T03:46:06.908Z,32.75
2019-05-21T03:48:37.022Z,27.13
2019-05-21T03:51:06.798Z,27.80
2019-05-21T03:53:36.995Z,33.23
2019-05-21T03:56:06.775Z,36.25
2019-05-21T03:58:37.088Z,31.17
2019-05-21T04:01:06.820Z,39.78
2019-05-21T04:03:38.005Z,36.58
2019-05-21T04:06:07.729Z,32.98
2019-05-21T04:08:37.479Z,23.47
2019-05-21T04:11:07.194Z,21.65
2019-05-21T04:13:37.413Z,21.10
2019-05-21T04:16:08.819Z,19.35
2019-05-21T04:18:40.197Z,20.97
2019-05-21T04:21:09.948Z,18.50
2019-05-21T04:23:39.691Z,17.95
2019-05-21T04:26:09.429Z,19.12
2019-05-21T04:28:39.720Z,16.45
2019-05-21T04:31:09.465Z,19.45
2019-05-21T04:33:39.225Z,19.15
2019-05-21T04:36:08.941Z,19.82
2019-05-21T04:38:38.691Z,20.00
2019-05-21T04:41:12.169Z,20.17
2019-05-21T04:43:41.884Z,19.67
2019-05-21T04:46:11.629Z,19.25
2019-05-21T04:48:41.354Z,19.95
2019-05-21T04:51:13.768Z,19.60
2019-05-21T04:53:42.517Z,17.82
2019-05-21T04:56:12.277Z,18.95
2019-05-21T04:58:42.000Z,18.70
2019-05-21T05:01:11.734Z,17.85
2019-05-21T05:03:41.474Z,19.90
2019-05-21T05:06:11.202Z,20.92
2019-05-21T05:08:40.924Z,18.37
2019-05-21T05:11:10.671Z,18.20
2019-05-21T05:13:40.421Z,19.52
2019-05-21T05:16:10.150Z,17.12
2019-05-21T05:18:39.889Z,19.75
2019-05-21T05:21:09.618Z,19.62
2019-05-21T05:23:39.454Z,20.70
2019-05-21T05:26:09.174Z,18.30
2019-05-21T05:28:38.930Z,19.98
2019-05-21T05:31:08.654Z,21.75
2019-05-21T05:33:38.391Z,18.05
2019-05-21T05:36:08.114Z,20.82
2019-05-21T05:38:37.865Z,19.10
2019-05-21T05:41:07.594Z,19.62
2019-05-21T05:43:37.403Z,19.45
2019-05-21T05:46:07.198Z,20.05
2019-05-21T05:48:38.602Z,18.35
2019-05-21T05:51:08.750Z,20.88
2019-05-21T05:53:57.065Z,19.67
2019-05-21T05:56:28.708Z,19.15
2019-05-21T05:58:58.480Z,20.55
2019-05-21T06:01:29.985Z,22.15
2019-05-21T06:03:59.700Z,22.17
2019-05-21T06:06:29.423Z,23.20
2019-05-21T06:08:59.163Z,24.70
2019-05-21T06:11:28.910Z,21.15
2019-05-21T06:13:58.624Z,24.32
2019-05-21T06:16:28.389Z,24.12
2019-05-21T06:18:58.115Z,21.60
2019-05-21T06:21:27.840Z,26.02
2019-05-21T06:23:57.569Z,31.85
2019-05-21T06:26:27.292Z,24.32
2019-05-21T06:28:57.206Z,35.68
2019-05-21T06:31:26.953Z,23.35
2019-05-21T06:33:57.063Z,36.63
2019-05-21T06:36:26.798Z,29.02
2019-05-21T06:38:56.989Z,36.25
2019-05-21T06:41:26.722Z,28.32
2019-05-21T06:43:56.934Z,33.88
2019-05-21T06:46:26.657Z,39.85
2019-05-21T06:48:57.068Z,34.98
2019-05-21T06:51:26.821Z,32.98
2019-05-21T06:53:57.234Z,25.90
2019-05-21T06:56:26.990Z,32.93
2019-05-21T06:58:57.181Z,30.55
2019-05-21T07:01:29.315Z,34.43
2019-05-21T07:03:58.382Z,42.17
2019-05-21T07:06:28.102Z,34.13
2019-05-21T07:08:57.848Z,31.80
2019-05-21T07:11:27.960Z,38.63
2019-05-21T07:13:57.705Z,31.97
2019-05-21T07:16:27.457Z,28.85
2019-05-21T07:18:57.186Z,30.75
2019-05-21T07:21:26.918Z,22.77
2019-05-21T07:23:57.244Z,31.93
2019-05-21T07:26:26.974Z,34.70
2019-05-21T07:28:57.435Z,30.85
2019-05-21T07:31:27.409Z,26.68
2019-05-21T07:33:57.132Z,28.32
2019-05-21T07:36:26.860Z,32.08
2019-05-21T07:38:57.985Z,32.78
2019-05-21T07:41:27.987Z,33.25
2019-05-21T07:43:57.729Z,24.20
2019-05-21T07:46:27.450Z,31.87
2019-05-21T07:48:58.405Z,35.90
2019-05-21T07:51:29.221Z,29.32
2019-05-21T07:53:59.022Z,29.67
2019-05-21T07:56:30.012Z,26.53
2019-05-21T07:58:59.805Z,21.17
2019-05-21T08:01:29.581Z,26.05
2019-05-21T08:03:59.297Z,19.70
2019-05-21T08:06:29.126Z,27.10
2019-05-21T08:09:12.284Z,28.62
2019-05-21T08:11:30.312Z,24.05
2019-05-21T08:14:00.035Z,27.67
2019-05-21T08:16:30.736Z,24.82
2019-05-21T08:19:00.458Z,24.18
2019-05-21T08:21:30.173Z,29.80
2019-05-21T08:24:00.062Z,32.55
2019-05-21T08:26:29.784Z,23.35
2019-05-21T08:28:59.514Z,27.77
2019-05-21T08:31:29.453Z,28.40
2019-05-21T08:33:59.184Z,23.00
2019-05-21T08:36:28.905Z,30.70
2019-05-21T08:38:59.583Z,25.25
2019-05-21T08:41:29.331Z,24.85
2019-05-21T08:43:59.105Z,30.37
2019-05-21T08:46:28.829Z,20.57
2019-05-21T08:48:58.561Z,22.37
2019-05-21T08:51:28.454Z,21.02
2019-05-21T08:53:58.178Z,20.43
2019-05-21T08:56:29.454Z,21.90
2019-05-21T08:58:59.177Z,23.32
2019-05-21T09:01:28.902Z,25.75
2019-05-21T09:03:58.667Z,21.42
2019-05-21T09:06:28.466Z,21.55
2019-05-21T09:08:58.194Z,25.17
2019-05-21T09:11:30.104Z,18.60
2019-05-21T09:13:59.825Z,19.62
2019-05-21T09:16:29.572Z,16.25
2019-05-21T09:18:59.296Z,23.12
2019-05-21T09:21:29.322Z,16.95
2019-05-21T09:23:59.054Z,18.50
2019-05-21T09:26:28.774Z,22.40
2019-05-21T09:28:58.524Z,18.35
2019-05-21T09:31:29.122Z,14.90
2019-05-21T09:33:58.858Z,20.27
2019-05-21T09:36:29.045Z,17.05
2019-05-21T09:38:58.788Z,20.70
2019-05-21T09:41:29.569Z,16.10
2019-05-21T09:43:59.323Z,18.80
2019-05-21T09:46:29.632Z,15.98
2019-05-21T09:49:00.171Z,18.12
2019-05-21T09:51:30.488Z,14.28
2019-05-21T09:54:00.236Z,12.85
2019-05-21T09:56:33.213Z,12.80
2019-05-21T09:59:07.071Z,15.10
2019-05-21T10:01:41.703Z,13.38
2019-05-21T10:04:11.477Z,15.03
2019-05-21T10:06:41.190Z,10.20
2019-05-21T10:09:16.193Z,10.25
2019-05-21T10:11:47.843Z,8.58
2019-05-21T10:14:17.555Z,8.35
2019-05-21T10:16:47.269Z,10.08
2019-05-21T10:19:17.567Z,10.55
2019-05-21T10:21:47.281Z,10.23
2019-05-21T10:24:17.502Z,9.78
2019-05-21T10:26:47.249Z,10.13
2019-05-21T10:29:16.960Z,8.65
2019-05-21T10:31:46.687Z,11.55
2019-05-21T10:34:17.282Z,11.03
2019-05-21T10:36:47.073Z,13.25
2019-05-21T10:39:18.033Z,13.50
2019-05-21T10:41:47.870Z,15.43
2019-05-21T10:44:17.670Z,14.53
2019-05-21T10:46:47.465Z,15.03
2019-05-21T10:49:17.557Z,12.93
2019-05-21T10:51:47.288Z,12.65
2019-05-21T10:54:17.208Z,8.50
2019-05-21T10:56:48.549Z,9.10
2019-05-21T10:59:18.541Z,8.10
2019-05-21T11:01:55.618Z,10.08
2019-05-21T11:04:33.027Z,9.05
2019-05-21T11:07:02.827Z,8.83
2019-05-21T11:09:32.693Z,9.78
2019-05-21T11:12:02.482Z,11.25
2019-05-21T11:14:32.203Z,12.23
2019-05-21T11:17:01.951Z,15.25
2019-05-21T11:19:31.668Z,15.55
2019-05-21T11:22:01.398Z,18.00
2019-05-21T11:24:31.116Z,18.52
2019-05-21T11:27:00.857Z,18.87
2019-05-21T11:29:30.657Z,20.80
2019-05-21T11:32:00.399Z,19.02
2019-05-21T11:34:31.708Z,19.50
2019-05-21T11:37:01.437Z,19.77
2019-05-21T11:39:31.652Z,20.37
2019-05-21T11:42:01.373Z,21.85
2019-05-21T11:44:31.893Z,19.82
2019-05-21T11:47:01.632Z,22.45
2019-05-21T11:49:31.350Z,19.92
2019-05-21T11:52:01.105Z,21.93
2019-05-21T11:54:30.840Z,19.48
2019-05-21T11:57:00.641Z,16.35
2019-05-21T11:59:30.529Z,17.12
2019-05-21T12:02:00.252Z,18.52
2019-05-21T12:04:29.986Z,18.35
2019-05-21T12:07:03.272Z,18.48
2019-05-21T12:09:31.517Z,21.50
2019-05-21T12:12:01.351Z,17.20
2019-05-21T12:14:31.135Z,20.60
2019-05-21T12:17:01.081Z,18.65
2019-05-21T12:19:30.810Z,21.07
2019-05-21T12:22:00.532Z,17.92
2019-05-21T12:24:30.258Z,16.30
2019-05-21T12:26:59.993Z,16.50
2019-05-21T12:29:29.729Z,16.05
2019-05-21T12:31:59.479Z,15.32
2019-05-21T12:34:29.202Z,14.30
2019-05-21T12:36:59.099Z,12.80
2019-05-21T12:39:29.366Z,15.00
2019-05-21T12:41:59.084Z,16.48
2019-05-21T12:44:28.814Z,14.03
2019-05-21T12:46:58.537Z,14.30
2019-05-21T12:49:28.353Z,15.03
2019-05-21T12:51:58.077Z,17.12
2019-05-21T12:54:27.917Z,21.17
2019-05-21T12:56:57.699Z,21.55
2019-05-21T12:59:27.422Z,18.37
2019-05-21T13:01:57.213Z,21.12
2019-05-21T13:04:27.017Z,22.17
2019-05-21T13:06:57.080Z,22.40
2019-05-21T13:09:32.962Z,21.97
2019-05-21T13:11:58.232Z,28.75
2019-05-21T13:14:27.952Z,23.47
2019-05-21T13:16:57.688Z,29.32
2019-05-21T13:19:27.403Z,26.68
2019-05-21T13:21:57.126Z,31.02
2019-05-21T13:24:26.870Z,27.77
2019-05-21T13:26:57.051Z,32.03
2019-05-21T13:29:26.869Z,28.40
2019-05-21T13:31:57.062Z,27.25
2019-05-21T13:34:26.901Z,31.05
2019-05-21T13:36:58.260Z,44.80
2019-05-21T13:39:27.997Z,34.08
2019-05-21T13:41:57.744Z,29.37
2019-05-21T13:44:27.502Z,27.85
2019-05-21T13:46:57.551Z,33.45
2019-05-21T13:49:27.458Z,35.25
2019-05-21T13:51:57.316Z,35.30
2019-05-21T13:54:27.050Z,29.80
2019-05-21T13:56:57.056Z,27.52
2019-05-21T13:59:26.782Z,30.02
2019-05-21T14:01:57.210Z,31.33
2019-05-21T14:04:27.047Z,27.00
2019-05-21T14:06:57.326Z,35.85
2019-05-21T14:09:27.071Z,28.05
2019-05-21T14:11:57.065Z,34.73
2019-05-21T14:14:26.797Z,33.78
2019-05-21T14:16:57.725Z,35.17
2019-05-21T14:19:27.480Z,32.00
2019-05-21T14:21:57.218Z,22.67
2019-05-21T14:24:26.962Z,24.20
2019-05-21T14:26:57.281Z,23.45
2019-05-21T14:29:27.027Z,25.43
2019-05-21T14:31:57.226Z,26.27
2019-05-21T14:34:26.981Z,25.50
2019-05-21T14:36:57.273Z,23.30
2019-05-21T14:39:26.989Z,21.50
2019-05-21T14:41:57.294Z,25.80
2019-05-21T14:44:27.015Z,26.27
2019-05-21T14:46:57.455Z,23.05
2019-05-21T14:49:27.228Z,23.00
2019-05-21T14:51:57.149Z,26.10
2019-05-21T14:54:27.272Z,21.33
2019-05-21T14:56:57.074Z,25.05
2019-05-21T14:59:26.806Z,25.45
2019-05-21T15:01:57.247Z,25.35
2019-05-21T15:04:27.306Z,24.37
2019-05-21T15:06:57.259Z,23.38
2019-05-21T15:09:27.025Z,26.07
2019-05-21T15:11:57.514Z,25.60
2019-05-21T15:14:27.238Z,27.52
2019-05-21T15:16:57.162Z,27.45
2019-05-21T15:19:27.775Z,30.08
2019-05-21T15:21:57.677Z,26.02
2019-05-21T15:24:27.410Z,27.80
2019-05-21T15:26:57.411Z,24.85
2019-05-21T15:29:27.134Z,21.95
2019-05-21T15:31:57.024Z,23.90
2019-05-21T15:34:26.747Z,23.25
2019-05-21T15:36:57.158Z,24.47
2019-05-21T15:39:26.890Z,25.12
2019-05-21T15:41:57.095Z,26.00
2019-05-21T15:44:26.891Z,27.75
2019-05-21T15:46:57.412Z,24.80
2019-05-21T15:49:35.671Z,23.18
2019-05-21T15:51:58.590Z,29.27
2019-05-21T15:54:28.307Z,27.17
2019-05-21T15:56:58.043Z,27.90
2019-05-21T15:59:27.764Z,27.22
2019-05-21T16:01:57.497Z,25.23
2019-05-21T16:04:27.221Z,26.65
2019-05-21T16:06:57.122Z,23.98
2019-05-21T16:09:27.008Z,23.50
2019-05-21T16:11:57.135Z,19.32
2019-05-21T16:14:26.860Z,21.20
2019-05-21T16:16:57.470Z,20.37
2019-05-21T16:19:27.194Z,19.35
2019-05-21T16:21:57.294Z,17.90
2019-05-21T16:24:27.091Z,19.57
2019-05-21T16:26:57.089Z,18.50
2019-05-21T16:29:26.977Z,17.95
2019-05-21T16:31:57.165Z,18.20
2019-05-21T16:34:26.893Z,17.25
2019-05-21T16:36:57.137Z,17.82
2019-05-21T16:39:27.639Z,18.95
2019-05-21T16:41:57.387Z,17.90
2019-05-21T16:44:27.170Z,17.27
2019-05-21T16:46:57.278Z,17.60
2019-05-21T16:49:27.274Z,16.45
2019-05-21T16:51:57.169Z,18.20
2019-05-21T16:54:26.970Z,15.60
2019-05-21T16:56:57.368Z,16.75
2019-05-21T16:59:27.158Z,18.32
2019-05-21T17:01:57.053Z,16.37
2019-05-21T17:04:26.788Z,15.55
2019-05-21T17:06:57.295Z,16.45
2019-05-21T17:09:28.344Z,16.95
2019-05-21T17:12:00.293Z,14.78
2019-05-21T17:14:29.716Z,15.28
2019-05-21T17:16:59.444Z,16.62
2019-05-21T17:19:29.201Z,15.68
2019-05-21T17:21:58.937Z,16.07
2019-05-21T17:24:28.789Z,16.35
2019-05-21T17:26:58.547Z,16.20
2019-05-21T17:29:28.280Z,15.98
2019-05-21T17:34:37.868Z,15.75
2019-05-21T17:37:08.816Z,15.53
2019-05-21T17:39:38.560Z,15.85
2019-05-21T17:42:15.556Z,14.68
2019-05-21T17:44:40.377Z,15.23
2019-05-21T17:47:10.116Z,14.73
2019-05-21T17:49:39.838Z,16.60
2019-05-21T17:52:09.658Z,16.05
2019-05-21T17:54:54.005Z,14.80
2019-05-21T17:57:12.132Z,17.00
2019-05-21T17:59:41.857Z,17.35
2019-05-21T18:02:13.344Z,16.95
2019-05-21T18:04:43.604Z,16.97
2019-05-21T18:07:13.822Z,17.48
2019-05-21T18:09:43.644Z,19.87
2019-05-21T18:12:14.322Z,19.37
2019-05-21T18:14:44.084Z,15.77
2019-05-21T18:17:15.735Z,20.00
2019-05-21T18:19:46.684Z,18.40
2019-05-21T18:22:18.121Z,18.27
2019-05-21T18:24:49.096Z,17.05
2019-05-21T18:27:19.278Z,19.52
2019-05-21T18:29:49.020Z,19.48
2019-05-21T18:32:18.845Z,17.25
2019-05-21T18:34:48.777Z,19.95
2019-05-21T18:37:18.622Z,19.02
2019-05-21T18:39:48.461Z,14.20
2019-05-21T18:42:22.301Z,17.95
2019-05-21T18:44:49.617Z,17.42
2019-05-21T18:47:19.447Z,18.95
2019-05-21T18:49:49.190Z,20.97
2019-05-21T18:52:18.924Z,17.66
2019-05-21T18:54:49.113Z,19.60
2019-05-21T18:57:18.933Z,18.82
2019-05-21T18:59:49.013Z,19.50
2019-05-21T19:02:18.879Z,19.02
2019-05-21T19:04:48.810Z,21.42
2019-05-21T19:07:18.607Z,20.60
2019-05-21T19:09:49.561Z,21.37
2019-05-21T19:12:19.480Z,21.87
2019-05-21T19:14:49.194Z,20.97
2019-05-21T19:17:18.998Z,21.25
2019-05-21T19:19:48.725Z,20.95
2019-05-21T19:22:18.477Z,22.70
2019-05-21T19:24:48.213Z,20.32
2019-05-21T19:27:17.937Z,21.35
2019-05-21T19:29:47.704Z,23.70
2019-05-21T19:32:17.422Z,25.75
2019-05-21T19:34:47.175Z,21.80
2019-05-21T19:37:16.905Z,22.62
2019-05-21T19:39:46.654Z,23.02
2019-05-21T19:42:16.369Z,25.32
2019-05-21T19:44:46.681Z,34.38
2019-05-21T19:47:16.476Z,25.57
2019-05-21T19:49:46.209Z,25.05
2019-05-21T19:52:15.949Z,23.50
2019-05-21T19:54:45.704Z,23.70
2019-05-21T19:57:15.429Z,22.80
2019-05-21T19:59:45.150Z,21.57
2019-05-21T20:02:15.639Z,25.82
2019-05-21T20:04:46.137Z,24.43
2019-05-21T20:07:17.453Z,20.75
2019-05-21T20:09:49.064Z,21.20
2019-05-21T20:12:19.026Z,25.12
2019-05-21T20:14:48.751Z,19.57
2019-05-21T20:17:19.054Z,21.50
2019-05-21T20:19:50.033Z,27.55
2019-05-21T20:22:20.137Z,27.17
2019-05-21T20:24:50.699Z,26.70
2019-05-21T20:27:20.791Z,26.15
2019-05-21T20:29:50.790Z,27.65
2019-05-21T20:32:21.448Z,25.90
2019-05-21T20:34:51.744Z,24.80
2019-05-21T20:37:23.153Z,23.25
2019-05-21T20:39:53.377Z,27.17
2019-05-21T20:42:24.812Z,23.65
2019-05-21T20:44:55.319Z,26.62
2019-05-21T20:47:26.381Z,23.85
2019-05-21T20:49:57.389Z,23.77
2019-05-21T20:52:27.169Z,25.70
2019-05-21T20:54:58.135Z,22.82
2019-05-21T20:57:29.027Z,26.13
2019-05-21T20:59:58.831Z,25.43
2019-05-21T21:02:30.413Z,23.98
2019-05-21T21:05:01.373Z,28.90
2019-05-21T21:07:31.854Z,28.67
2019-05-21T21:10:02.492Z,25.17
2019-05-21T21:12:32.484Z,31.42
2019-05-21T21:15:03.914Z,26.70
2019-05-21T21:17:33.644Z,30.48
2019-05-21T21:20:05.418Z,22.98
2019-05-21T21:22:35.145Z,29.30
2019-05-21T21:25:06.582Z,26.75
2019-05-21T21:27:37.086Z,24.95
2019-05-21T21:30:10.499Z,31.23
2019-05-21T21:32:40.290Z,28.57
2019-05-21T21:35:10.673Z,27.52
2019-05-21T21:37:40.393Z,26.68
2019-05-21T21:40:12.940Z,29.27
2019-05-21T21:42:43.724Z,29.75
2019-05-21T21:45:13.689Z,28.87
2019-05-21T21:47:43.419Z,30.88
2019-05-21T21:50:15.388Z,28.87
2019-05-21T21:52:45.111Z,22.07
2019-05-21T21:55:15.186Z,32.28
2019-05-21T21:57:45.178Z,29.55
2019-05-21T22:00:49.864Z,30.92
2019-05-21T22:03:20.271Z,31.93
2019-05-21T22:05:50.263Z,32.25
2019-05-21T22:08:20.224Z,30.85
2019-05-21T22:10:50.753Z,30.90
2019-05-21T22:13:20.836Z,30.05
2019-05-21T22:15:51.208Z,25.45
2019-05-21T22:18:21.010Z,29.00
2019-05-21T22:20:51.145Z,29.10
2019-05-21T22:23:21.400Z,28.90
2019-05-21T22:25:51.129Z,35.38
2019-05-21T22:28:21.412Z,25.82
2019-05-21T22:30:51.280Z,28.73
2019-05-21T22:33:21.072Z,31.62
2019-05-21T22:35:50.800Z,26.60
2019-05-21T22:38:20.585Z,34.00
2019-05-21T22:40:50.381Z,31.17
2019-05-21T22:43:20.135Z,27.82
2019-05-21T22:45:50.021Z,27.48
2019-05-21T22:48:19.815Z,30.70
2019-05-21T22:50:49.613Z,28.23
2019-05-21T22:53:19.334Z,26.55
2019-05-21T22:55:49.065Z,27.07
2019-05-21T22:58:18.809Z,41.25
2019-05-21T23:00:50.205Z,28.10
2019-05-21T23:03:20.014Z,29.82
2019-05-21T23:05:50.015Z,25.48
2019-05-21T23:08:20.611Z,29.15
2019-05-21T23:10:50.402Z,28.55
2019-05-21T23:13:20.262Z,29.67
2019-05-21T23:15:50.734Z,26.37
2019-05-21T23:18:20.625Z,24.90
2019-05-21T23:20:51.112Z,26.57
2019-05-21T23:23:23.536Z,24.52
2019-05-21T23:25:53.952Z,28.47
2019-05-21T23:28:25.175Z,26.37
2019-05-21T23:30:55.035Z,35.63
2019-05-21T23:33:27.228Z,32.93
2019-05-21T23:35:58.460Z,28.57
2019-05-21T23:38:28.221Z,26.77
2019-05-21T23:40:58.214Z,25.55
2019-05-21T23:43:28.038Z,28.17
2019-05-21T23:45:57.768Z,30.92
2019-05-21T23:48:28.688Z,23.40
2019-05-21T23:50:59.810Z,23.85
2019-05-21T23:53:29.626Z,26.62
2019-05-21T23:55:59.368Z,30.68
2019-05-21T23:58:29.126Z,29.57
